sensor_id;sensor_type;location;lat;lon;timestamp;temperature;humidity
40534;DHT22;26233;51.894;10.192;2023-02-01T00:00:03;7.20;53.60
40534;DHT22;26233;51.894;10.192;2023-02-01T00:02:31;7.20;53.60
40534;DHT22;26233;51.894;10.192;2023-02-01T00:04:58;7.20;53.60
40534;DHT22;26233;51.894;10.192;2023-02-01T00:07:25;7.20;53.50
40534;DHT22;26233;51.894;10.192;2023-02-01T00:09:52;7.20;53.60
40534;DHT22;26233;51.894;10.192;2023-02-01T00:12:19;7.20;53.60
40534;DHT22;26233;51.894;10.192;2023-02-01T00:14:48;7.20;53.70
40534;DHT22;26233;51.894;10.192;2023-02-01T00:17:14;7.20;53.70
40534;DHT22;26233;51.894;10.192;2023-02-01T00:19:41;7.20;53.70
40534;DHT22;26233;51.894;10.192;2023-02-01T00:22:08;7.20;53.70
40534;DHT22;26233;51.894;10.192;2023-02-01T00:24:36;7.30;53.70
40534;DHT22;26233;51.894;10.192;2023-02-01T00:27:03;7.30;53.70
40534;DHT22;26233;51.894;10.192;2023-02-01T00:29:30;7.30;53.80
40534;DHT22;26233;51.894;10.192;2023-02-01T00:31:58;7.30;53.70
40534;DHT22;26233;51.894;10.192;2023-02-01T00:34:25;7.30;53.70
40534;DHT22;26233;51.894;10.192;2023-02-01T00:36:52;7.30;53.70
40534;DHT22;26233;51.894;10.192;2023-02-01T00:39:19;7.30;53.70
40534;DHT22;26233;51.894;10.192;2023-02-01T00:41:46;7.40;53.80
40534;DHT22;26233;51.894;10.192;2023-02-01T00:44:16;7.40;53.80
40534;DHT22;26233;51.894;10.192;2023-02-01T00:46:43;7.40;53.80
40534;DHT22;26233;51.894;10.192;2023-02-01T00:49:11;7.40;53.60
40534;DHT22;26233;51.894;10.192;2023-02-01T00:51:38;7.40;53.70
40534;DHT22;26233;51.894;10.192;2023-02-01T00:54:06;7.40;53.60
40534;DHT22;26233;51.894;10.192;2023-02-01T00:56:33;7.40;53.70
40534;DHT22;26233;51.894;10.192;2023-02-01T00:59:00;7.40;53.70
40534;DHT22;26233;51.894;10.192;2023-02-01T01:01:27;7.40;53.60
40534;DHT22;26233;51.894;10.192;2023-02-01T01:03:56;7.40;53.60
40534;DHT22;26233;51.894;10.192;2023-02-01T01:06:27;7.40;53.60
40534;DHT22;26233;51.894;10.192;2023-02-01T01:08:57;7.40;53.50
40534;DHT22;26233;51.894;10.192;2023-02-01T01:11:27;7.40;53.40
40534;DHT22;26233;51.894;10.192;2023-02-01T01:13:57;7.40;53.40
40534;DHT22;26233;51.894;10.192;2023-02-01T01:16:26;7.30;53.50
40534;DHT22;26233;51.894;10.192;2023-02-01T01:18:55;7.40;53.40
40534;DHT22;26233;51.894;10.192;2023-02-01T01:21:22;7.30;53.30
40534;DHT22;26233;51.894;10.192;2023-02-01T01:23:51;7.30;53.30
40534;DHT22;26233;51.894;10.192;2023-02-01T01:26:20;7.30;53.30
40534;DHT22;26233;51.894;10.192;2023-02-01T01:28:49;7.30;53.40
40534;DHT22;26233;51.894;10.192;2023-02-01T01:31:17;7.30;53.40
40534;DHT22;26233;51.894;10.192;2023-02-01T01:33:48;7.30;53.40
40534;DHT22;26233;51.894;10.192;2023-02-01T01:36:16;7.30;53.40
40534;DHT22;26233;51.894;10.192;2023-02-01T01:38:43;7.30;53.40
40534;DHT22;26233;51.894;10.192;2023-02-01T01:41:14;7.30;53.30
40534;DHT22;26233;51.894;10.192;2023-02-01T01:43:50;7.30;53.20
40534;DHT22;26233;51.894;10.192;2023-02-01T01:46:21;7.30;53.10
40534;DHT22;26233;51.894;10.192;2023-02-01T01:48:54;7.20;53.20
40534;DHT22;26233;51.894;10.192;2023-02-01T01:51:26;7.20;53.20
40534;DHT22;26233;51.894;10.192;2023-02-01T01:53:59;7.20;53.20
40534;DHT22;26233;51.894;10.192;2023-02-01T01:56:30;7.20;53.20
40534;DHT22;26233;51.894;10.192;2023-02-01T01:58:59;7.20;53.20
40534;DHT22;26233;51.894;10.192;2023-02-01T02:01:30;7.20;53.80
40534;DHT22;26233;51.894;10.192;2023-02-01T02:03:57;7.10;53.20
40534;DHT22;26233;51.894;10.192;2023-02-01T02:06:38;7.10;53.20
40534;DHT22;26233;51.894;10.192;2023-02-01T02:09:07;7.10;53.60
40534;DHT22;26233;51.894;10.192;2023-02-01T02:11:36;7.10;53.30
40534;DHT22;26233;51.894;10.192;2023-02-01T02:14:04;7.10;53.30
40534;DHT22;26233;51.894;10.192;2023-02-01T02:16:52;7.10;53.20
40534;DHT22;26233;51.894;10.192;2023-02-01T02:20:05;7.10;53.10
40534;DHT22;26233;51.894;10.192;2023-02-01T02:23:33;7.10;53.10
40534;DHT22;26233;51.894;10.192;2023-02-01T02:30:25;7.10;53.00
40534;DHT22;26233;51.894;10.192;2023-02-01T02:36:30;7.10;53.10
40534;DHT22;26233;51.894;10.192;2023-02-01T02:39:07;7.10;53.20
40534;DHT22;26233;51.894;10.192;2023-02-01T02:41:43;7.10;53.30
40534;DHT22;26233;51.894;10.192;2023-02-01T02:44:38;7.10;53.30
40534;DHT22;26233;51.894;10.192;2023-02-01T02:47:33;7.00;53.30
40534;DHT22;26233;51.894;10.192;2023-02-01T02:50:11;7.10;53.40
40534;DHT22;26233;51.894;10.192;2023-02-01T02:53:05;7.10;53.30
40534;DHT22;26233;51.894;10.192;2023-02-01T02:55:56;7.10;53.20
40534;DHT22;26233;51.894;10.192;2023-02-01T02:58:42;7.10;53.30
40534;DHT22;26233;51.894;10.192;2023-02-01T03:01:28;7.10;53.40
40534;DHT22;26233;51.894;10.192;2023-02-01T03:04:13;7.10;53.40
40534;DHT22;26233;51.894;10.192;2023-02-01T03:06:44;7.10;53.70
40534;DHT22;26233;51.894;10.192;2023-02-01T03:09:18;7.10;53.30
40534;DHT22;26233;51.894;10.192;2023-02-01T03:11:50;7.10;53.10
40534;DHT22;26233;51.894;10.192;2023-02-01T03:14:41;7.10;53.30
40534;DHT22;26233;51.894;10.192;2023-02-01T03:17:14;7.10;53.40
40534;DHT22;26233;51.894;10.192;2023-02-01T03:19:46;7.10;53.40
40534;DHT22;26233;51.894;10.192;2023-02-01T03:22:18;7.10;53.50
40534;DHT22;26233;51.894;10.192;2023-02-01T03:24:50;7.10;53.40
40534;DHT22;26233;51.894;10.192;2023-02-01T03:27:21;7.10;53.40
40534;DHT22;26233;51.894;10.192;2023-02-01T03:29:54;7.20;53.40
40534;DHT22;26233;51.894;10.192;2023-02-01T03:32:24;7.20;53.40
40534;DHT22;26233;51.894;10.192;2023-02-01T03:34:52;7.20;53.50
40534;DHT22;26233;51.894;10.192;2023-02-01T03:37:24;7.20;53.50
40534;DHT22;26233;51.894;10.192;2023-02-01T03:39:57;7.20;54.00
40534;DHT22;26233;51.894;10.192;2023-02-01T03:42:30;7.20;53.40
40534;DHT22;26233;51.894;10.192;2023-02-01T03:45:06;7.20;53.40
40534;DHT22;26233;51.894;10.192;2023-02-01T03:47:40;7.30;53.50
40534;DHT22;26233;51.894;10.192;2023-02-01T03:50:11;7.30;53.50
40534;DHT22;26233;51.894;10.192;2023-02-01T03:52:43;7.20;53.30
40534;DHT22;26233;51.894;10.192;2023-02-01T03:55:13;7.30;53.40
40534;DHT22;26233;51.894;10.192;2023-02-01T03:57:44;7.30;53.50
40534;DHT22;26233;51.894;10.192;2023-02-01T04:00:17;7.30;53.40
40534;DHT22;26233;51.894;10.192;2023-02-01T04:02:47;7.30;53.20
40534;DHT22;26233;51.894;10.192;2023-02-01T04:05:14;7.30;53.30
40534;DHT22;26233;51.894;10.192;2023-02-01T04:07:43;7.30;53.50
40534;DHT22;26233;51.894;10.192;2023-02-01T04:10:11;7.30;53.40
40534;DHT22;26233;51.894;10.192;2023-02-01T04:12:39;7.30;53.40
40534;DHT22;26233;51.894;10.192;2023-02-01T04:15:07;7.30;53.40
40534;DHT22;26233;51.894;10.192;2023-02-01T04:17:34;7.40;53.50
40534;DHT22;26233;51.894;10.192;2023-02-01T04:20:01;7.30;53.30
40534;DHT22;26233;51.894;10.192;2023-02-01T04:22:30;7.30;53.30
40534;DHT22;26233;51.894;10.192;2023-02-01T04:24:58;7.30;53.20
40534;DHT22;26233;51.894;10.192;2023-02-01T04:27:25;7.30;53.20
40534;DHT22;26233;51.894;10.192;2023-02-01T04:29:52;7.30;53.30
40534;DHT22;26233;51.894;10.192;2023-02-01T04:32:21;7.30;53.40
40534;DHT22;26233;51.894;10.192;2023-02-01T04:34:48;7.30;53.50
40534;DHT22;26233;51.894;10.192;2023-02-01T04:37:16;7.30;53.40
40534;DHT22;26233;51.894;10.192;2023-02-01T04:39:43;7.20;53.40
40534;DHT22;26233;51.894;10.192;2023-02-01T04:42:11;7.20;53.50
40534;DHT22;26233;51.894;10.192;2023-02-01T04:44:39;7.20;53.40
40534;DHT22;26233;51.894;10.192;2023-02-01T04:47:07;7.10;53.40
40534;DHT22;26233;51.894;10.192;2023-02-01T04:49:34;7.20;54.20
40534;DHT22;26233;51.894;10.192;2023-02-01T04:52:02;7.20;53.60
40534;DHT22;26233;51.894;10.192;2023-02-01T04:54:29;7.20;53.70
40534;DHT22;26233;51.894;10.192;2023-02-01T04:56:56;7.20;53.70
40534;DHT22;26233;51.894;10.192;2023-02-01T04:59:25;7.20;53.70
40534;DHT22;26233;51.894;10.192;2023-02-01T05:01:52;7.20;53.70
40534;DHT22;26233;51.894;10.192;2023-02-01T05:04:19;7.20;53.80
40534;DHT22;26233;51.894;10.192;2023-02-01T05:06:46;7.20;53.80
40534;DHT22;26233;51.894;10.192;2023-02-01T05:09:13;7.20;53.80
40534;DHT22;26233;51.894;10.192;2023-02-01T05:11:40;7.20;53.70
40534;DHT22;26233;51.894;10.192;2023-02-01T05:14:26;7.20;53.70
40534;DHT22;26233;51.894;10.192;2023-02-01T05:16:53;7.10;53.50
40534;DHT22;26233;51.894;10.192;2023-02-01T05:19:20;7.20;53.70
40534;DHT22;26233;51.894;10.192;2023-02-01T05:21:47;7.20;53.60
40534;DHT22;26233;51.894;10.192;2023-02-01T05:24:14;7.20;53.60
40534;DHT22;26233;51.894;10.192;2023-02-01T05:26:46;7.20;53.60
40534;DHT22;26233;51.894;10.192;2023-02-01T05:29:15;7.20;53.50
40534;DHT22;26233;51.894;10.192;2023-02-01T05:31:45;7.20;53.50
40534;DHT22;26233;51.894;10.192;2023-02-01T05:34:12;7.20;53.40
40534;DHT22;26233;51.894;10.192;2023-02-01T05:36:40;7.20;53.60
40534;DHT22;26233;51.894;10.192;2023-02-01T05:39:09;7.20;53.60
40534;DHT22;26233;51.894;10.192;2023-02-01T05:41:36;7.20;53.50
40534;DHT22;26233;51.894;10.192;2023-02-01T05:44:03;7.20;53.50
40534;DHT22;26233;51.894;10.192;2023-02-01T05:46:32;7.20;53.60
40534;DHT22;26233;51.894;10.192;2023-02-01T05:49:01;7.20;53.60
40534;DHT22;26233;51.894;10.192;2023-02-01T05:51:28;7.20;53.60
40534;DHT22;26233;51.894;10.192;2023-02-01T05:53:55;7.20;53.60
40534;DHT22;26233;51.894;10.192;2023-02-01T05:56:22;7.20;53.50
40534;DHT22;26233;51.894;10.192;2023-02-01T05:58:49;7.10;53.50
40534;DHT22;26233;51.894;10.192;2023-02-01T06:01:16;7.10;53.50
40534;DHT22;26233;51.894;10.192;2023-02-01T06:03:43;7.10;53.50
40534;DHT22;26233;51.894;10.192;2023-02-01T06:06:12;7.20;53.60
40534;DHT22;26233;51.894;10.192;2023-02-01T06:08:39;7.00;53.40
40534;DHT22;26233;51.894;10.192;2023-02-01T06:11:06;7.00;53.50
40534;DHT22;26233;51.894;10.192;2023-02-01T06:13:34;7.00;53.60
40534;DHT22;26233;51.894;10.192;2023-02-01T06:16:01;7.00;53.60
40534;DHT22;26233;51.894;10.192;2023-02-01T06:18:31;7.00;53.70
40534;DHT22;26233;51.894;10.192;2023-02-01T06:20:59;7.00;53.70
40534;DHT22;26233;51.894;10.192;2023-02-01T06:23:28;7.00;53.80
40534;DHT22;26233;51.894;10.192;2023-02-01T06:25:59;7.00;53.80
40534;DHT22;26233;51.894;10.192;2023-02-01T06:28:27;7.00;53.90
40534;DHT22;26233;51.894;10.192;2023-02-01T06:30:55;6.90;53.80
40534;DHT22;26233;51.894;10.192;2023-02-01T06:33:23;7.00;53.90
40534;DHT22;26233;51.894;10.192;2023-02-01T06:35:56;6.90;53.80
40534;DHT22;26233;51.894;10.192;2023-02-01T06:38:24;7.00;53.80
40534;DHT22;26233;51.894;10.192;2023-02-01T06:40:54;6.90;53.90
40534;DHT22;26233;51.894;10.192;2023-02-01T06:43:21;6.90;53.80
40534;DHT22;26233;51.894;10.192;2023-02-01T06:45:49;6.90;53.70
40534;DHT22;26233;51.894;10.192;2023-02-01T06:48:16;6.90;53.80
40534;DHT22;26233;51.894;10.192;2023-02-01T06:50:43;6.90;53.80
40534;DHT22;26233;51.894;10.192;2023-02-01T06:53:10;6.90;53.80
40534;DHT22;26233;51.894;10.192;2023-02-01T06:55:37;6.80;53.80
40534;DHT22;26233;51.894;10.192;2023-02-01T06:58:06;6.80;53.80
40534;DHT22;26233;51.894;10.192;2023-02-01T07:00:32;6.80;53.80
40534;DHT22;26233;51.894;10.192;2023-02-01T07:03:00;6.80;53.90
40534;DHT22;26233;51.894;10.192;2023-02-01T07:05:27;6.80;53.80
40534;DHT22;26233;51.894;10.192;2023-02-01T07:07:54;6.70;53.70
40534;DHT22;26233;51.894;10.192;2023-02-01T07:10:22;6.70;53.70
40534;DHT22;26233;51.894;10.192;2023-02-01T07:12:49;6.70;53.70
40534;DHT22;26233;51.894;10.192;2023-02-01T07:15:17;6.60;53.60
40534;DHT22;26233;51.894;10.192;2023-02-01T07:17:44;6.60;53.50
40534;DHT22;26233;51.894;10.192;2023-02-01T07:20:13;6.60;53.70
40534;DHT22;26233;51.894;10.192;2023-02-01T07:22:40;6.50;53.70
40534;DHT22;26233;51.894;10.192;2023-02-01T07:25:07;6.50;53.80
40534;DHT22;26233;51.894;10.192;2023-02-01T07:27:35;6.40;53.90
40534;DHT22;26233;51.894;10.192;2023-02-01T07:30:06;6.40;54.00
40534;DHT22;26233;51.894;10.192;2023-02-01T07:32:36;6.40;54.10
40534;DHT22;26233;51.894;10.192;2023-02-01T07:35:03;6.50;54.30
40534;DHT22;26233;51.894;10.192;2023-02-01T07:37:31;6.50;55.00
40534;DHT22;26233;51.894;10.192;2023-02-01T07:39:58;6.50;54.50
40534;DHT22;26233;51.894;10.192;2023-02-01T07:42:26;6.50;54.50
40534;DHT22;26233;51.894;10.192;2023-02-01T07:44:53;6.50;54.50
40534;DHT22;26233;51.894;10.192;2023-02-01T07:47:20;6.50;54.50
40534;DHT22;26233;51.894;10.192;2023-02-01T07:49:48;6.60;54.60
40534;DHT22;26233;51.894;10.192;2023-02-01T07:52:15;6.60;55.20
40534;DHT22;26233;51.894;10.192;2023-02-01T07:54:42;6.60;54.60
40534;DHT22;26233;51.894;10.192;2023-02-01T07:57:09;6.60;54.70
40534;DHT22;26233;51.894;10.192;2023-02-01T07:59:38;6.70;54.80
40534;DHT22;26233;51.894;10.192;2023-02-01T08:02:25;6.70;54.80
40534;DHT22;26233;51.894;10.192;2023-02-01T08:04:53;6.70;54.80
40534;DHT22;26233;51.894;10.192;2023-02-01T08:07:20;6.70;54.80
40534;DHT22;26233;51.894;10.192;2023-02-01T08:09:48;6.80;54.90
40534;DHT22;26233;51.894;10.192;2023-02-01T08:12:15;6.80;55.00
40534;DHT22;26233;51.894;10.192;2023-02-01T08:14:43;6.90;55.00
40534;DHT22;26233;51.894;10.192;2023-02-01T08:17:13;6.90;55.30
40534;DHT22;26233;51.894;10.192;2023-02-01T08:19:39;6.90;55.00
40534;DHT22;26233;51.894;10.192;2023-02-01T08:22:08;7.00;55.00
40534;DHT22;26233;51.894;10.192;2023-02-01T08:24:35;7.00;55.50
40534;DHT22;26233;51.894;10.192;2023-02-01T08:27:05;7.00;54.90
40534;DHT22;26233;51.894;10.192;2023-02-01T08:29:32;7.10;55.00
40534;DHT22;26233;51.894;10.192;2023-02-01T08:31:59;7.10;54.80
40534;DHT22;26233;51.894;10.192;2023-02-01T08:34:26;7.10;54.80
40534;DHT22;26233;51.894;10.192;2023-02-01T08:36:53;7.10;54.70
40534;DHT22;26233;51.894;10.192;2023-02-01T08:39:27;7.20;54.80
40534;DHT22;26233;51.894;10.192;2023-02-01T08:41:54;7.20;54.70
40534;DHT22;26233;51.894;10.192;2023-02-01T08:44:38;7.20;54.50
40534;DHT22;26233;51.894;10.192;2023-02-01T08:47:08;7.30;54.80
40534;DHT22;26233;51.894;10.192;2023-02-01T08:49:36;7.30;55.30
40534;DHT22;26233;51.894;10.192;2023-02-01T08:52:04;7.30;54.50
40534;DHT22;26233;51.894;10.192;2023-02-01T08:54:32;7.40;54.70
40534;DHT22;26233;51.894;10.192;2023-02-01T08:56:59;7.40;54.70
40534;DHT22;26233;51.894;10.192;2023-02-01T08:59:26;7.40;54.60
40534;DHT22;26233;51.894;10.192;2023-02-01T09:01:53;7.50;54.80
40534;DHT22;26233;51.894;10.192;2023-02-01T09:04:21;7.50;54.60
40534;DHT22;26233;51.894;10.192;2023-02-01T09:06:48;7.50;54.40
40534;DHT22;26233;51.894;10.192;2023-02-01T09:09:15;7.50;54.50
40534;DHT22;26233;51.894;10.192;2023-02-01T09:11:43;7.50;54.40
40534;DHT22;26233;51.894;10.192;2023-02-01T09:14:10;7.60;54.50
40534;DHT22;26233;51.894;10.192;2023-02-01T09:16:37;7.50;54.50
40534;DHT22;26233;51.894;10.192;2023-02-01T09:19:05;7.50;54.40
40534;DHT22;26233;51.894;10.192;2023-02-01T09:21:32;7.60;54.60
40534;DHT22;26233;51.894;10.192;2023-02-01T09:23:59;7.60;54.60
40534;DHT22;26233;51.894;10.192;2023-02-01T09:26:26;7.60;54.50
40534;DHT22;26233;51.894;10.192;2023-02-01T09:28:55;7.60;54.60
40534;DHT22;26233;51.894;10.192;2023-02-01T09:31:22;7.60;54.40
40534;DHT22;26233;51.894;10.192;2023-02-01T09:33:49;7.70;54.50
40534;DHT22;26233;51.894;10.192;2023-02-01T09:36:16;7.80;54.50
40534;DHT22;26233;51.894;10.192;2023-02-01T09:38:45;7.70;54.30
40534;DHT22;26233;51.894;10.192;2023-02-01T09:41:26;7.80;54.40
40534;DHT22;26233;51.894;10.192;2023-02-01T09:44:07;7.70;54.60
40534;DHT22;26233;51.894;10.192;2023-02-01T09:46:38;7.70;54.10
40534;DHT22;26233;51.894;10.192;2023-02-01T09:49:09;7.70;54.20
40534;DHT22;26233;51.894;10.192;2023-02-01T09:51:42;7.70;54.00
40534;DHT22;26233;51.894;10.192;2023-02-01T09:54:14;7.70;54.20
40534;DHT22;26233;51.894;10.192;2023-02-01T09:56:47;7.70;54.40
40534;DHT22;26233;51.894;10.192;2023-02-01T09:59:26;7.70;54.40
40534;DHT22;26233;51.894;10.192;2023-02-01T10:01:59;7.70;54.40
40534;DHT22;26233;51.894;10.192;2023-02-01T10:04:28;7.70;54.50
40534;DHT22;26233;51.894;10.192;2023-02-01T10:07:02;7.70;54.50
40534;DHT22;26233;51.894;10.192;2023-02-01T10:09:47;7.80;54.50
40534;DHT22;26233;51.894;10.192;2023-02-01T10:12:42;7.80;54.30
40534;DHT22;26233;51.894;10.192;2023-02-01T10:15:40;7.80;54.20
40534;DHT22;26233;51.894;10.192;2023-02-01T10:18:28;7.90;54.30
40534;DHT22;26233;51.894;10.192;2023-02-01T10:21:09;7.90;54.10
40534;DHT22;26233;51.894;10.192;2023-02-01T10:24:01;7.90;54.40
40534;DHT22;26233;51.894;10.192;2023-02-01T10:26:36;8.00;54.30
40534;DHT22;26233;51.894;10.192;2023-02-01T10:29:13;8.00;54.40
40534;DHT22;26233;51.894;10.192;2023-02-01T10:31:44;8.10;54.30
40534;DHT22;26233;51.894;10.192;2023-02-01T10:34:17;8.10;54.40
40534;DHT22;26233;51.894;10.192;2023-02-01T10:36:53;8.10;54.20
40534;DHT22;26233;51.894;10.192;2023-02-01T10:39:22;8.20;54.20
40534;DHT22;26233;51.894;10.192;2023-02-01T10:41:49;8.20;54.00
40534;DHT22;26233;51.894;10.192;2023-02-01T10:44:19;8.20;53.70
40534;DHT22;26233;51.894;10.192;2023-02-01T10:46:50;8.20;54.00
40534;DHT22;26233;51.894;10.192;2023-02-01T10:49:20;8.30;54.20
40534;DHT22;26233;51.894;10.192;2023-02-01T10:51:54;8.30;54.20
40534;DHT22;26233;51.894;10.192;2023-02-01T10:54:33;8.30;54.10
40534;DHT22;26233;51.894;10.192;2023-02-01T10:57:01;8.40;53.60
40534;DHT22;26233;51.894;10.192;2023-02-01T10:59:29;8.40;53.80
40534;DHT22;26233;51.894;10.192;2023-02-01T11:02:02;8.40;53.50
40534;DHT22;26233;51.894;10.192;2023-02-01T11:04:34;8.40;53.50
40534;DHT22;26233;51.894;10.192;2023-02-01T11:07:07;8.50;53.70
40534;DHT22;26233;51.894;10.192;2023-02-01T11:09:40;8.50;53.50
40534;DHT22;26233;51.894;10.192;2023-02-01T11:12:24;8.50;53.80
40534;DHT22;26233;51.894;10.192;2023-02-01T11:14:58;8.50;53.20
40534;DHT22;26233;51.894;10.192;2023-02-01T11:17:34;8.50;53.60
40534;DHT22;26233;51.894;10.192;2023-02-01T11:20:05;8.50;53.40
40534;DHT22;26233;51.894;10.192;2023-02-01T11:22:46;8.50;53.40
40534;DHT22;26233;51.894;10.192;2023-02-01T11:25:15;8.60;53.20
40534;DHT22;26233;51.894;10.192;2023-02-01T11:27:44;8.60;53.40
40534;DHT22;26233;51.894;10.192;2023-02-01T11:30:17;8.60;52.80
40534;DHT22;26233;51.894;10.192;2023-02-01T11:32:48;8.60;52.90
40534;DHT22;26233;51.894;10.192;2023-02-01T11:35:19;8.60;53.00
40534;DHT22;26233;51.894;10.192;2023-02-01T11:37:52;8.60;53.10
40534;DHT22;26233;51.894;10.192;2023-02-01T11:40:27;8.50;52.90
40534;DHT22;26233;51.894;10.192;2023-02-01T11:42:57;8.50;53.00
40534;DHT22;26233;51.894;10.192;2023-02-01T11:45:27;8.50;52.70
40534;DHT22;26233;51.894;10.192;2023-02-01T11:47:57;8.50;52.80
40534;DHT22;26233;51.894;10.192;2023-02-01T11:50:31;8.50;52.80
40534;DHT22;26233;51.894;10.192;2023-02-01T11:53:28;8.50;52.90
40534;DHT22;26233;51.894;10.192;2023-02-01T11:56:10;8.50;52.00
40534;DHT22;26233;51.894;10.192;2023-02-01T11:59:13;8.50;52.20
40534;DHT22;26233;51.894;10.192;2023-02-01T12:02:11;8.50;52.40
40534;DHT22;26233;51.894;10.192;2023-02-01T12:05:18;8.50;52.50
40534;DHT22;26233;51.894;10.192;2023-02-01T12:08:16;8.50;52.40
40534;DHT22;26233;51.894;10.192;2023-02-01T12:11:09;8.50;52.30
40534;DHT22;26233;51.894;10.192;2023-02-01T12:13:52;8.50;52.70
40534;DHT22;26233;51.894;10.192;2023-02-01T12:16:29;8.50;52.60
40534;DHT22;26233;51.894;10.192;2023-02-01T12:19:15;8.40;52.20
40534;DHT22;26233;51.894;10.192;2023-02-01T12:22:18;8.40;52.30
40534;DHT22;26233;51.894;10.192;2023-02-01T12:25:14;8.40;52.50
40534;DHT22;26233;51.894;10.192;2023-02-01T12:28:14;8.40;52.90
40534;DHT22;26233;51.894;10.192;2023-02-01T12:31:07;8.40;52.50
40534;DHT22;26233;51.894;10.192;2023-02-01T12:34:01;8.30;52.30
40534;DHT22;26233;51.894;10.192;2023-02-01T12:36:50;8.30;52.60
40534;DHT22;26233;51.894;10.192;2023-02-01T12:39:30;8.30;52.70
40534;DHT22;26233;51.894;10.192;2023-02-01T12:42:02;8.30;52.40
40534;DHT22;26233;51.894;10.192;2023-02-01T12:44:38;8.40;52.80
40534;DHT22;26233;51.894;10.192;2023-02-01T12:47:14;8.40;52.90
40534;DHT22;26233;51.894;10.192;2023-02-01T12:49:49;8.30;52.40
40534;DHT22;26233;51.894;10.192;2023-02-01T12:52:26;8.40;52.50
40534;DHT22;26233;51.894;10.192;2023-02-01T12:55:05;8.40;52.60
40534;DHT22;26233;51.894;10.192;2023-02-01T12:57:40;8.40;52.60
40534;DHT22;26233;51.894;10.192;2023-02-01T13:00:18;8.30;52.30
40534;DHT22;26233;51.894;10.192;2023-02-01T13:02:54;8.30;52.30
40534;DHT22;26233;51.894;10.192;2023-02-01T13:05:29;8.30;52.30
40534;DHT22;26233;51.894;10.192;2023-02-01T13:08:03;8.30;52.70
40534;DHT22;26233;51.894;10.192;2023-02-01T13:10:37;8.30;52.70
40534;DHT22;26233;51.894;10.192;2023-02-01T13:13:12;8.30;52.70
40534;DHT22;26233;51.894;10.192;2023-02-01T13:15:45;8.30;52.10
40534;DHT22;26233;51.894;10.192;2023-02-01T13:18:18;8.30;52.50
40534;DHT22;26233;51.894;10.192;2023-02-01T13:20:52;8.30;52.50
40534;DHT22;26233;51.894;10.192;2023-02-01T13:23:25;8.30;52.60
40534;DHT22;26233;51.894;10.192;2023-02-01T13:25:56;8.20;52.30
40534;DHT22;26233;51.894;10.192;2023-02-01T13:28:26;8.20;52.40
40534;DHT22;26233;51.894;10.192;2023-02-01T13:31:24;8.30;52.70
40534;DHT22;26233;51.894;10.192;2023-02-01T13:37:14;8.10;52.50
40534;DHT22;26233;51.894;10.192;2023-02-01T13:40:13;8.10;52.60
40534;DHT22;26233;51.894;10.192;2023-02-01T13:42:49;8.10;52.50
40534;DHT22;26233;51.894;10.192;2023-02-01T13:45:20;8.00;52.70
40534;DHT22;26233;51.894;10.192;2023-02-01T13:47:50;8.00;52.70
40534;DHT22;26233;51.894;10.192;2023-02-01T13:50:23;7.90;52.70
40534;DHT22;26233;51.894;10.192;2023-02-01T13:52:54;7.90;52.80
40534;DHT22;26233;51.894;10.192;2023-02-01T13:55:28;7.90;53.00
40534;DHT22;26233;51.894;10.192;2023-02-01T13:58:06;7.80;53.00
40534;DHT22;26233;51.894;10.192;2023-02-01T14:00:40;7.80;53.00
40534;DHT22;26233;51.894;10.192;2023-02-01T14:03:11;7.80;53.10
40534;DHT22;26233;51.894;10.192;2023-02-01T14:06:15;7.80;53.00
40534;DHT22;26233;51.894;10.192;2023-02-01T14:09:05;7.80;53.10
40534;DHT22;26233;51.894;10.192;2023-02-01T14:11:41;7.70;53.10
40534;DHT22;26233;51.894;10.192;2023-02-01T14:14:45;7.70;53.00
40534;DHT22;26233;51.894;10.192;2023-02-01T14:17:36;7.60;52.60
40534;DHT22;26233;51.894;10.192;2023-02-01T14:23:29;7.50;52.90
40534;DHT22;26233;51.894;10.192;2023-02-01T14:26:18;7.40;53.00
40534;DHT22;26233;51.894;10.192;2023-02-01T14:28:51;7.40;53.00
40534;DHT22;26233;51.894;10.192;2023-02-01T14:31:42;7.40;53.20
40534;DHT22;26233;51.894;10.192;2023-02-01T14:34:18;7.30;53.30
40534;DHT22;26233;51.894;10.192;2023-02-01T14:36:53;7.30;53.40
40534;DHT22;26233;51.894;10.192;2023-02-01T14:39:31;7.30;53.50
40534;DHT22;26233;51.894;10.192;2023-02-01T14:42:14;7.30;53.60
40534;DHT22;26233;51.894;10.192;2023-02-01T14:44:45;7.20;53.60
40534;DHT22;26233;51.894;10.192;2023-02-01T14:47:33;7.20;53.70
40534;DHT22;26233;51.894;10.192;2023-02-01T14:50:12;7.20;53.70
40534;DHT22;26233;51.894;10.192;2023-02-01T14:52:47;7.20;53.70
40534;DHT22;26233;51.894;10.192;2023-02-01T14:55:21;7.10;52.80
40534;DHT22;26233;51.894;10.192;2023-02-01T14:57:53;7.00;52.10
40534;DHT22;26233;51.894;10.192;2023-02-01T15:00:24;6.80;51.80
40534;DHT22;26233;51.894;10.192;2023-02-01T15:03:11;6.60;51.70
40534;DHT22;26233;51.894;10.192;2023-02-01T15:05:54;6.40;51.60
40534;DHT22;26233;51.894;10.192;2023-02-01T15:08:25;6.20;51.70
40534;DHT22;26233;51.894;10.192;2023-02-01T15:10:54;6.10;52.00
40534;DHT22;26233;51.894;10.192;2023-02-01T15:13:25;5.90;51.90
40534;DHT22;26233;51.894;10.192;2023-02-01T15:16:03;5.80;51.90
40534;DHT22;26233;51.894;10.192;2023-02-01T15:18:34;5.70;52.10
40534;DHT22;26233;51.894;10.192;2023-02-01T15:21:03;5.60;52.10
40534;DHT22;26233;51.894;10.192;2023-02-01T15:23:32;5.50;52.10
40534;DHT22;26233;51.894;10.192;2023-02-01T15:25:59;5.40;52.30
40534;DHT22;26233;51.894;10.192;2023-02-01T15:28:26;5.30;52.50
40534;DHT22;26233;51.894;10.192;2023-02-01T15:30:56;5.20;52.60
40534;DHT22;26233;51.894;10.192;2023-02-01T15:33:24;5.20;52.70
40534;DHT22;26233;51.894;10.192;2023-02-01T15:35:54;5.20;52.80
40534;DHT22;26233;51.894;10.192;2023-02-01T15:38:40;5.20;53.00
40534;DHT22;26233;51.894;10.192;2023-02-01T15:41:11;5.20;53.10
40534;DHT22;26233;51.894;10.192;2023-02-01T15:43:42;5.10;53.10
40534;DHT22;26233;51.894;10.192;2023-02-01T15:46:13;5.20;53.30
40534;DHT22;26233;51.894;10.192;2023-02-01T15:48:44;5.20;53.30
40534;DHT22;26233;51.894;10.192;2023-02-01T15:51:17;5.20;53.50
40534;DHT22;26233;51.894;10.192;2023-02-01T15:53:52;5.20;53.50
40534;DHT22;26233;51.894;10.192;2023-02-01T15:56:25;5.30;53.70
40534;DHT22;26233;51.894;10.192;2023-02-01T15:58:57;5.30;53.70
40534;DHT22;26233;51.894;10.192;2023-02-01T16:01:26;5.40;53.70
40534;DHT22;26233;51.894;10.192;2023-02-01T16:04:09;5.40;53.70
40534;DHT22;26233;51.894;10.192;2023-02-01T16:06:48;5.40;53.70
40534;DHT22;26233;51.894;10.192;2023-02-01T16:09:18;5.40;53.70
40534;DHT22;26233;51.894;10.192;2023-02-01T16:11:54;5.50;53.80
40534;DHT22;26233;51.894;10.192;2023-02-01T16:14:23;5.50;53.90
40534;DHT22;26233;51.894;10.192;2023-02-01T16:16:51;5.60;53.90
40534;DHT22;26233;51.894;10.192;2023-02-01T16:19:21;5.60;53.90